sensor_id;sensor_type;location;lat;lon;timestamp;temperature;humidity
530;DHT22;251;48.704;9.210;2024-03-23T00:53:43;5.70;48.30
530;DHT22;251;48.704;9.210;2024-03-23T00:56:09;5.70;50.80
530;DHT22;251;48.704;9.210;2024-03-23T00:58:35;5.70;52.00
530;DHT22;251;48.704;9.210;2024-03-23T01:01:01;5.70;52.10
530;DHT22;251;48.704;9.210;2024-03-23T01:03:28;5.60;50.80
530;DHT22;251;48.704;9.210;2024-03-23T01:05:54;5.70;50.30
530;DHT22;251;48.704;9.210;2024-03-23T01:08:20;5.70;51.90
530;DHT22;251;48.704;9.210;2024-03-23T01:10:56;5.70;53.30
530;DHT22;251;48.704;9.210;2024-03-23T01:13:23;5.70;52.60
530;DHT22;251;48.704;9.210;2024-03-23T01:15:49;5.70;53.00
530;DHT22;251;48.704;9.210;2024-03-23T01:18:15;5.60;50.80
530;DHT22;251;48.704;9.210;2024-03-23T01:20:41;5.60;50.90
530;DHT22;251;48.704;9.210;2024-03-23T01:23:07;5.60;52.80
530;DHT22;251;48.704;9.210;2024-03-23T01:25:33;5.60;52.70
530;DHT22;251;48.704;9.210;2024-03-23T01:28:02;5.60;53.10
530;DHT22;251;48.704;9.210;2024-03-23T01:30:28;5.50;53.30
530;DHT22;251;48.704;9.210;2024-03-23T01:32:54;5.50;54.10
530;DHT22;251;48.704;9.210;2024-03-23T01:35:20;5.50;53.90
530;DHT22;251;48.704;9.210;2024-03-23T01:37:46;5.50;55.50
530;DHT22;251;48.704;9.210;2024-03-23T01:40:12;5.50;53.70
530;DHT22;251;48.704;9.210;2024-03-23T01:42:39;5.50;55.20
530;DHT22;251;48.704;9.210;2024-03-23T01:45:09;5.50;54.30
530;DHT22;251;48.704;9.210;2024-03-23T01:47:35;5.50;53.10
530;DHT22;251;48.704;9.210;2024-03-23T01:50:01;5.50;54.60
530;DHT22;251;48.704;9.210;2024-03-23T01:52:27;5.50;54.10
530;DHT22;251;48.704;9.210;2024-03-23T01:54:54;5.40;52.30
530;DHT22;251;48.704;9.210;2024-03-23T01:57:20;5.50;55.20
530;DHT22;251;48.704;9.210;2024-03-23T01:59:46;5.50;53.50
530;DHT22;251;48.704;9.210;2024-03-23T02:02:16;5.40;54.40
530;DHT22;251;48.704;9.210;2024-03-23T02:04:42;5.40;54.10
530;DHT22;251;48.704;9.210;2024-03-23T02:07:08;5.40;55.30
530;DHT22;251;48.704;9.210;2024-03-23T02:09:35;5.40;54.90
530;DHT22;251;48.704;9.210;2024-03-23T02:12:02;5.40;55.00
530;DHT22;251;48.704;9.210;2024-03-23T02:14:28;5.40;54.20
530;DHT22;251;48.704;9.210;2024-03-23T02:16:54;5.30;54.70
530;DHT22;251;48.704;9.210;2024-03-23T02:19:23;5.40;55.50
530;DHT22;251;48.704;9.210;2024-03-23T02:21:49;5.40;54.30
530;DHT22;251;48.704;9.210;2024-03-23T02:24:17;5.30;55.10
530;DHT22;251;48.704;9.210;2024-03-23T02:26:43;5.30;54.80
530;DHT22;251;48.704;9.210;2024-03-23T02:29:09;5.30;56.10
530;DHT22;251;48.704;9.210;2024-03-23T02:31:35;5.30;55.50
530;DHT22;251;48.704;9.210;2024-03-23T02:34:02;5.20;56.00
530;DHT22;251;48.704;9.210;2024-03-23T02:36:28;5.20;58.60
530;DHT22;251;48.704;9.210;2024-03-23T02:38:54;5.20;59.70
530;DHT22;251;48.704;9.210;2024-03-23T02:41:23;5.20;59.60
530;DHT22;251;48.704;9.210;2024-03-23T02:43:49;5.20;59.90
530;DHT22;251;48.704;9.210;2024-03-23T02:46:15;5.30;62.00
530;DHT22;251;48.704;9.210;2024-03-23T02:48:41;5.40;66.80
530;DHT22;251;48.704;9.210;2024-03-23T02:51:07;5.60;71.90
530;DHT22;251;48.704;9.210;2024-03-23T02:53:33;5.80;77.10
530;DHT22;251;48.704;9.210;2024-03-23T02:55:59;6.00;76.60
530;DHT22;251;48.704;9.210;2024-03-23T02:58:27;6.30;76.00
530;DHT22;251;48.704;9.210;2024-03-23T03:00:53;6.60;73.00
530;DHT22;251;48.704;9.210;2024-03-23T03:03:19;6.90;73.10
530;DHT22;251;48.704;9.210;2024-03-23T03:05:45;7.20;66.50
530;DHT22;251;48.704;9.210;2024-03-23T03:08:11;7.50;61.40
530;DHT22;251;48.704;9.210;2024-03-23T03:10:37;7.70;55.00
530;DHT22;251;48.704;9.210;2024-03-23T03:13:03;7.90;51.20
530;DHT22;251;48.704;9.210;2024-03-23T03:15:32;8.00;47.80
530;DHT22;251;48.704;9.210;2024-03-23T03:17:58;8.00;46.70
530;DHT22;251;48.704;9.210;2024-03-23T03:20:24;8.00;46.90
530;DHT22;251;48.704;9.210;2024-03-23T03:22:50;8.10;46.20
530;DHT22;251;48.704;9.210;2024-03-23T03:25:16;8.20;44.60
530;DHT22;251;48.704;9.210;2024-03-23T03:27:42;8.30;44.90
530;DHT22;251;48.704;9.210;2024-03-23T03:30:09;8.20;44.00
530;DHT22;251;48.704;9.210;2024-03-23T03:32:38;8.30;44.00
530;DHT22;251;48.704;9.210;2024-03-23T03:35:04;8.30;43.10
530;DHT22;251;48.704;9.210;2024-03-23T03:37:30;8.30;42.80
530;DHT22;251;48.704;9.210;2024-03-23T03:39:56;8.20;42.00
530;DHT22;251;48.704;9.210;2024-03-23T03:42:22;8.20;42.60
530;DHT22;251;48.704;9.210;2024-03-23T03:44:48;8.10;43.00
530;DHT22;251;48.704;9.210;2024-03-23T03:47:14;8.10;42.80
530;DHT22;251;48.704;9.210;2024-03-23T03:49:43;8.00;43.80
530;DHT22;251;48.704;9.210;2024-03-23T03:52:09;8.10;44.00
530;DHT22;251;48.704;9.210;2024-03-23T03:54:35;8.10;42.00
530;DHT22;251;48.704;9.210;2024-03-23T03:57:01;8.10;43.00
530;DHT22;251;48.704;9.210;2024-03-23T03:59:27;8.10;43.60
530;DHT22;251;48.704;9.210;2024-03-23T04:01:52;8.00;43.80
530;DHT22;251;48.704;9.210;2024-03-23T04:04:18;8.00;43.60
530;DHT22;251;48.704;9.210;2024-03-23T04:06:47;7.90;44.40
530;DHT22;251;48.704;9.210;2024-03-23T04:09:13;7.80;45.10
530;DHT22;251;48.704;9.210;2024-03-23T04:11:39;7.80;47.50
530;DHT22;251;48.704;9.210;2024-03-23T04:14:05;7.70;46.40
530;DHT22;251;48.704;9.210;2024-03-23T04:16:34;7.70;46.50
530;DHT22;251;48.704;9.210;2024-03-23T04:19:01;7.60;48.00
530;DHT22;251;48.704;9.210;2024-03-23T04:21:27;7.50;48.60
530;DHT22;251;48.704;9.210;2024-03-23T04:23:55;7.40;48.10
530;DHT22;251;48.704;9.210;2024-03-23T04:26:21;7.30;45.80
530;DHT22;251;48.704;9.210;2024-03-23T04:28:47;7.20;45.80
530;DHT22;251;48.704;9.210;2024-03-23T04:31:13;7.10;47.60
530;DHT22;251;48.704;9.210;2024-03-23T04:33:39;7.10;50.10
530;DHT22;251;48.704;9.210;2024-03-23T04:36:06;7.10;53.10
530;DHT22;251;48.704;9.210;2024-03-23T04:38:32;7.10;55.30
530;DHT22;251;48.704;9.210;2024-03-23T04:41:01;7.20;56.10
530;DHT22;251;48.704;9.210;2024-03-23T04:43:27;7.20;53.60
530;DHT22;251;48.704;9.210;2024-03-23T04:45:53;7.20;56.00
530;DHT22;251;48.704;9.210;2024-03-23T04:48:21;7.20;58.00
530;DHT22;251;48.704;9.210;2024-03-23T04:50:47;7.30;57.90
530;DHT22;251;48.704;9.210;2024-03-23T04:53:13;7.30;58.80
530;DHT22;251;48.704;9.210;2024-03-23T04:55:39;7.20;50.80
530;DHT22;251;48.704;9.210;2024-03-23T04:58:07;7.20;53.60
530;DHT22;251;48.704;9.210;2024-03-23T05:00:34;7.40;58.80
530;DHT22;251;48.704;9.210;2024-03-23T05:03:00;7.70;61.70
530;DHT22;251;48.704;9.210;2024-03-23T05:05:26;7.90;70.40
530;DHT22;251;48.704;9.210;2024-03-23T05:07:52;8.20;84.00
530;DHT22;251;48.704;9.210;2024-03-23T05:10:18;8.40;85.80
530;DHT22;251;48.704;9.210;2024-03-23T05:12:44;8.50;94.10
530;DHT22;251;48.704;9.210;2024-03-23T05:15:12;8.60;98.90
530;DHT22;251;48.704;9.210;2024-03-23T05:17:39;8.60;99.90
530;DHT22;251;48.704;9.210;2024-03-23T05:20:05;8.60;99.90
530;DHT22;251;48.704;9.210;2024-03-23T05:22:32;8.70;99.90
530;DHT22;251;48.704;9.210;2024-03-23T05:24:58;8.70;99.90
530;DHT22;251;48.704;9.210;2024-03-23T05:27:24;8.70;99.90
530;DHT22;251;48.704;9.210;2024-03-23T05:29:50;8.70;99.90
530;DHT22;251;48.704;9.210;2024-03-23T05:32:18;8.70;99.90
530;DHT22;251;48.704;9.210;2024-03-23T05:34:44;8.70;99.90
530;DHT22;251;48.704;9.210;2024-03-23T05:37:10;8.80;99.90
530;DHT22;251;48.704;9.210;2024-03-23T05:39:36;8.80;99.90
530;DHT22;251;48.704;9.210;2024-03-23T05:42:02;8.80;99.90
530;DHT22;251;48.704;9.210;2024-03-23T05:44:28;8.80;99.90
530;DHT22;251;48.704;9.210;2024-03-23T05:46:54;8.80;99.90
530;DHT22;251;48.704;9.210;2024-03-23T05:49:23;8.80;98.70
530;DHT22;251;48.704;9.210;2024-03-23T05:51:49;8.80;96.60
530;DHT22;251;48.704;9.210;2024-03-23T05:54:15;8.80;96.70
530;DHT22;251;48.704;9.210;2024-03-23T05:56:41;8.80;95.70
530;DHT22;251;48.704;9.210;2024-03-23T05:59:07;8.70;94.50
530;DHT22;251;48.704;9.210;2024-03-23T06:01:33;8.70;94.50
530;DHT22;251;48.704;9.210;2024-03-23T06:03:59;8.70;93.90
530;DHT22;251;48.704;9.210;2024-03-23T06:06:28;8.70;86.00
530;DHT22;251;48.704;9.210;2024-03-23T06:08:56;8.60;77.20
530;DHT22;251;48.704;9.210;2024-03-23T06:11:22;8.60;77.60
530;DHT22;251;48.704;9.210;2024-03-23T06:13:48;8.50;68.80
530;DHT22;251;48.704;9.210;2024-03-23T06:16:14;8.50;65.50
530;DHT22;251;48.704;9.210;2024-03-23T06:18:40;8.40;60.20
530;DHT22;251;48.704;9.210;2024-03-23T06:21:13;8.40;54.90
530;DHT22;251;48.704;9.210;2024-03-23T06:23:42;8.30;58.70
530;DHT22;251;48.704;9.210;2024-03-23T06:26:08;8.30;60.40
530;DHT22;251;48.704;9.210;2024-03-23T06:28:34;8.30;54.40
530;DHT22;251;48.704;9.210;2024-03-23T06:31:00;8.30;56.80
530;DHT22;251;48.704;9.210;2024-03-23T06:33:26;8.20;58.90
530;DHT22;251;48.704;9.210;2024-03-23T06:35:52;8.10;59.70
530;DHT22;251;48.704;9.210;2024-03-23T06:38:18;8.00;60.00
530;DHT22;251;48.704;9.210;2024-03-23T06:40:47;8.00;60.70
530;DHT22;251;48.704;9.210;2024-03-23T06:43:13;8.00;61.20
530;DHT22;251;48.704;9.210;2024-03-23T06:45:39;8.00;59.60
530;DHT22;251;48.704;9.210;2024-03-23T06:48:06;8.00;57.10
530;DHT22;251;48.704;9.210;2024-03-23T06:50:32;8.00;54.80
530;DHT22;251;48.704;9.210;2024-03-23T06:52:58;8.10;57.80
530;DHT22;251;48.704;9.210;2024-03-23T06:55:24;8.10;55.90
530;DHT22;251;48.704;9.210;2024-03-23T06:57:53;8.10;55.60
530;DHT22;251;48.704;9.210;2024-03-23T07:00:19;8.10;59.40
530;DHT22;251;48.704;9.210;2024-03-23T07:02:45;8.20;56.00
530;DHT22;251;48.704;9.210;2024-03-23T07:05:11;8.20;55.60
530;DHT22;251;48.704;9.210;2024-03-23T07:07:38;8.20;54.50
530;DHT22;251;48.704;9.210;2024-03-23T07:10:06;8.30;51.50
530;DHT22;251;48.704;9.210;2024-03-23T07:12:32;8.30;47.30
530;DHT22;251;48.704;9.210;2024-03-23T07:15:00;8.40;46.20
530;DHT22;251;48.704;9.210;2024-03-23T07:17:26;8.40;45.50
530;DHT22;251;48.704;9.210;2024-03-23T07:19:52;8.40;42.90
530;DHT22;251;48.704;9.210;2024-03-23T07:22:18;8.40;43.80
530;DHT22;251;48.704;9.210;2024-03-23T07:24:44;8.40;45.70
530;DHT22;251;48.704;9.210;2024-03-23T07:27:10;8.50;45.90
530;DHT22;251;48.704;9.210;2024-03-23T07:29:36;8.50;44.10
530;DHT22;251;48.704;9.210;2024-03-23T07:32:05;8.60;43.20
530;DHT22;251;48.704;9.210;2024-03-23T07:34:31;8.70;41.60
530;DHT22;251;48.704;9.210;2024-03-23T07:36:57;8.80;37.60
530;DHT22;251;48.704;9.210;2024-03-23T07:39:23;9.00;38.30
530;DHT22;251;48.704;9.210;2024-03-23T07:41:49;9.00;37.10
530;DHT22;251;48.704;9.210;2024-03-23T07:44:15;9.00;37.10
530;DHT22;251;48.704;9.210;2024-03-23T07:46:41;9.00;36.90
530;DHT22;251;48.704;9.210;2024-03-23T07:49:09;9.00;34.90
530;DHT22;251;48.704;9.210;2024-03-23T07:51:35;9.00;33.90
530;DHT22;251;48.704;9.210;2024-03-23T07:54:01;9.00;33.30
530;DHT22;251;48.704;9.210;2024-03-23T07:56:27;9.00;34.00
530;DHT22;251;48.704;9.210;2024-03-23T07:58:53;9.00;32.70
530;DHT22;251;48.704;9.210;2024-03-23T08:01:19;9.00;32.10
530;DHT22;251;48.704;9.210;2024-03-23T08:03:45;9.00;33.30
530;DHT22;251;48.704;9.210;2024-03-23T08:06:15;9.00;33.30
530;DHT22;251;48.704;9.210;2024-03-23T08:08:43;9.10;33.30
530;DHT22;251;48.704;9.210;2024-03-23T08:11:09;9.10;32.90
530;DHT22;251;48.704;9.210;2024-03-23T08:13:36;9.10;33.20
530;DHT22;251;48.704;9.210;2024-03-23T08:16:03;9.00;35.70
530;DHT22;251;48.704;9.210;2024-03-23T08:18:29;8.90;37.20
530;DHT22;251;48.704;9.210;2024-03-23T08:20:56;8.80;42.60
530;DHT22;251;48.704;9.210;2024-03-23T08:23:26;8.60;42.90
530;DHT22;251;48.704;9.210;2024-03-23T08:25:54;8.40;43.10
530;DHT22;251;48.704;9.210;2024-03-23T08:28:22;8.40;49.80
530;DHT22;251;48.704;9.210;2024-03-23T08:30:48;8.30;45.80
530;DHT22;251;48.704;9.210;2024-03-23T08:33:15;8.30;42.30
530;DHT22;251;48.704;9.210;2024-03-23T08:35:41;8.30;38.80
530;DHT22;251;48.704;9.210;2024-03-23T08:38:07;8.40;41.10
530;DHT22;251;48.704;9.210;2024-03-23T08:40:36;8.50;40.30
530;DHT22;251;48.704;9.210;2024-03-23T08:43:02;8.70;39.20
530;DHT22;251;48.704;9.210;2024-03-23T08:45:28;8.80;39.20
530;DHT22;251;48.704;9.210;2024-03-23T08:47:54;8.80;34.10
530;DHT22;251;48.704;9.210;2024-03-23T08:50:20;8.70;33.30
530;DHT22;251;48.704;9.210;2024-03-23T08:52:46;8.70;30.30
530;DHT22;251;48.704;9.210;2024-03-23T08:55:12;8.70;29.30
530;DHT22;251;48.704;9.210;2024-03-23T08:57:41;8.60;27.40
530;DHT22;251;48.704;9.210;2024-03-23T09:00:07;8.60;29.30
530;DHT22;251;48.704;9.210;2024-03-23T09:02:34;8.60;27.50
530;DHT22;251;48.704;9.210;2024-03-23T09:05:00;8.60;26.70
530;DHT22;251;48.704;9.210;2024-03-23T09:07:26;8.60;26.10
530;DHT22;251;48.704;9.210;2024-03-23T09:09:52;8.60;25.00
530;DHT22;251;48.704;9.210;2024-03-23T09:12:18;8.60;24.10
530;DHT22;251;48.704;9.210;2024-03-23T09:14:47;8.60;23.20
530;DHT22;251;48.704;9.210;2024-03-23T09:17:13;8.50;23.00
530;DHT22;251;48.704;9.210;2024-03-23T09:19:39;8.50;23.60
530;DHT22;251;48.704;9.210;2024-03-23T09:22:05;8.50;22.50
530;DHT22;251;48.704;9.210;2024-03-23T09:24:31;8.50;21.80
530;DHT22;251;48.704;9.210;2024-03-23T09:26:57;8.50;21.30
530;DHT22;251;48.704;9.210;2024-03-23T09:29:23;8.50;20.10
530;DHT22;251;48.704;9.210;2024-03-23T09:31:52;8.60;21.70
530;DHT22;251;48.704;9.210;2024-03-23T09:34:18;8.80;21.70
530;DHT22;251;48.704;9.210;2024-03-23T09:36:44;9.00;20.80
530;DHT22;251;48.704;9.210;2024-03-23T09:39:10;9.20;19.30
530;DHT22;251;48.704;9.210;2024-03-23T09:41:36;9.40;18.00
530;DHT22;251;48.704;9.210;2024-03-23T09:44:02;9.50;16.60
530;DHT22;251;48.704;9.210;2024-03-23T09:46:28;9.60;16.30
530;DHT22;251;48.704;9.210;2024-03-23T09:48:57;9.50;14.20
530;DHT22;251;48.704;9.210;2024-03-23T09:51:23;9.60;12.40
530;DHT22;251;48.704;9.210;2024-03-23T09:53:50;9.70;14.90
530;DHT22;251;48.704;9.210;2024-03-23T09:56:16;9.70;13.70
530;DHT22;251;48.704;9.210;2024-03-23T09:58:43;9.70;15.70
530;DHT22;251;48.704;9.210;2024-03-23T10:01:09;9.60;14.10
530;DHT22;251;48.704;9.210;2024-03-23T10:03:42;9.50;13.80
530;DHT22;251;48.704;9.210;2024-03-23T10:06:11;9.50;14.20
530;DHT22;251;48.704;9.210;2024-03-23T10:08:37;9.60;13.20
530;DHT22;251;48.704;9.210;2024-03-23T10:11:13;9.80;14.30
530;DHT22;251;48.704;9.210;2024-03-23T10:13:41;10.10;12.30
530;DHT22;251;48.704;9.210;2024-03-23T10:16:08;10.50;11.70
530;DHT22;251;48.704;9.210;2024-03-23T10:18:37;10.60;11.30
530;DHT22;251;48.704;9.210;2024-03-23T10:21:07;10.50;11.10
530;DHT22;251;48.704;9.210;2024-03-23T10:23:37;10.80;11.40
530;DHT22;251;48.704;9.210;2024-03-23T10:26:15;10.90;9.90
530;DHT22;251;48.704;9.210;2024-03-23T10:28:55;11.00;8.90
530;DHT22;251;48.704;9.210;2024-03-23T10:31:22;11.10;8.80
530;DHT22;251;48.704;9.210;2024-03-23T10:33:49;11.20;8.30
530;DHT22;251;48.704;9.210;2024-03-23T10:36:15;11.10;6.10
530;DHT22;251;48.704;9.210;2024-03-23T10:38:44;11.10;6.40
530;DHT22;251;48.704;9.210;2024-03-23T10:41:10;11.10;4.70
530;DHT22;251;48.704;9.210;2024-03-23T10:43:37;11.00;5.10
530;DHT22;251;48.704;9.210;2024-03-23T10:46:03;11.00;5.70
530;DHT22;251;48.704;9.210;2024-03-23T10:48:30;11.00;5.70
530;DHT22;251;48.704;9.210;2024-03-23T10:50:56;11.10;6.10
530;DHT22;251;48.704;9.210;2024-03-23T10:53:22;11.00;4.70
530;DHT22;251;48.704;9.210;2024-03-23T10:55:54;10.80;4.60
530;DHT22;251;48.704;9.210;2024-03-23T10:58:23;10.50;8.60
530;DHT22;251;48.704;9.210;2024-03-23T11:00:50;10.10;9.80
530;DHT22;251;48.704;9.210;2024-03-23T11:03:32;9.50;12.50
530;DHT22;251;48.704;9.210;2024-03-23T11:05:59;9.00;16.50
530;DHT22;251;48.704;9.210;2024-03-23T11:08:32;8.40;20.80
530;DHT22;251;48.704;9.210;2024-03-23T11:11:15;7.70;26.20
530;DHT22;251;48.704;9.210;2024-03-23T11:13:42;7.10;33.90
530;DHT22;251;48.704;9.210;2024-03-23T11:16:13;6.90;35.20
530;DHT22;251;48.704;9.210;2024-03-23T11:18:40;6.80;37.60
530;DHT22;251;48.704;9.210;2024-03-23T11:21:06;6.80;42.30
530;DHT22;251;48.704;9.210;2024-03-23T11:23:33;7.00;45.20
530;DHT22;251;48.704;9.210;2024-03-23T11:25:59;7.10;39.70
530;DHT22;251;48.704;9.210;2024-03-23T11:28:27;7.20;35.20
530;DHT22;251;48.704;9.210;2024-03-23T11:30:53;7.30;32.30
530;DHT22;251;48.704;9.210;2024-03-23T11:33:20;7.50;35.00
530;DHT22;251;48.704;9.210;2024-03-23T11:35:46;7.70;33.00
530;DHT22;251;48.704;9.210;2024-03-23T11:38:12;8.10;30.70
530;DHT22;251;48.704;9.210;2024-03-23T11:40:40;8.30;30.60
530;DHT22;251;48.704;9.210;2024-03-23T11:43:07;8.60;27.40
530;DHT22;251;48.704;9.210;2024-03-23T11:45:41;8.70;25.20
530;DHT22;251;48.704;9.210;2024-03-23T11:48:09;8.80;22.80
530;DHT22;251;48.704;9.210;2024-03-23T11:50:37;9.00;23.40
530;DHT22;251;48.704;9.210;2024-03-23T11:53:21;9.00;21.40
530;DHT22;251;48.704;9.210;2024-03-23T11:55:49;9.20;23.00
530;DHT22;251;48.704;9.210;2024-03-23T11:58:16;9.20;20.10
530;DHT22;251;48.704;9.210;2024-03-23T12:00:49;9.20;19.70
530;DHT22;251;48.704;9.210;2024-03-23T12:03:16;9.20;19.90
530;DHT22;251;48.704;9.210;2024-03-23T12:05:48;9.30;18.80
530;DHT22;251;48.704;9.210;2024-03-23T12:08:19;9.40;20.40
530;DHT22;251;48.704;9.210;2024-03-23T12:10:48;9.50;20.10
530;DHT22;251;48.704;9.210;2024-03-23T12:13:18;9.50;15.90
530;DHT22;251;48.704;9.210;2024-03-23T12:15:50;9.30;14.40
530;DHT22;251;48.704;9.210;2024-03-23T12:18:16;9.50;16.60
530;DHT22;251;48.704;9.210;2024-03-23T12:20:43;9.50;15.60
530;DHT22;251;48.704;9.210;2024-03-23T12:23:10;9.50;14.60
530;DHT22;251;48.704;9.210;2024-03-23T12:25:38;9.40;12.20
530;DHT22;251;48.704;9.210;2024-03-23T12:28:04;9.40;12.70
530;DHT22;251;48.704;9.210;2024-03-23T12:30:33;9.40;13.00
530;DHT22;251;48.704;9.210;2024-03-23T12:33:02;9.40;10.70
530;DHT22;251;48.704;9.210;2024-03-23T12:35:29;9.50;11.90
530;DHT22;251;48.704;9.210;2024-03-23T12:37:55;9.60;12.80
530;DHT22;251;48.704;9.210;2024-03-23T12:40:21;9.60;11.50
530;DHT22;251;48.704;9.210;2024-03-23T12:42:47;9.60;12.00
530;DHT22;251;48.704;9.210;2024-03-23T12:45:13;9.70;11.90
530;DHT22;251;48.704;9.210;2024-03-23T12:47:39;9.80;11.00
530;DHT22;251;48.704;9.210;2024-03-23T12:50:08;9.90;11.80
530;DHT22;251;48.704;9.210;2024-03-23T12:52:35;10.00;10.70
530;DHT22;251;48.704;9.210;2024-03-23T12:55:01;10.30;9.80
530;DHT22;251;48.704;9.210;2024-03-23T12:57:27;10.30;8.80
530;DHT22;251;48.704;9.210;2024-03-23T12:59:53;10.20;8.50
530;DHT22;251;48.704;9.210;2024-03-23T13:02:19;10.10;9.80
530;DHT22;251;48.704;9.210;2024-03-23T13:04:46;10.00;8.80
530;DHT22;251;48.704;9.210;2024-03-23T13:07:15;9.90;9.40
530;DHT22;251;48.704;9.210;2024-03-23T13:09:42;10.00;9.10
530;DHT22;251;48.704;9.210;2024-03-23T13:12:08;10.00;8.50
530;DHT22;251;48.704;9.210;2024-03-23T13:14:34;10.30;9.20
530;DHT22;251;48.704;9.210;2024-03-23T13:17:01;10.30;9.40
530;DHT22;251;48.704;9.210;2024-03-23T13:19:27;10.20;9.20
530;DHT22;251;48.704;9.210;2024-03-23T13:21:53;10.40;9.00
530;DHT22;251;48.704;9.210;2024-03-23T13:24:24;11.00;8.90
530;DHT22;251;48.704;9.210;2024-03-23T13:26:50;11.30;6.00
530;DHT22;251;48.704;9.210;2024-03-23T13:29:17;11.50;4.40
530;DHT22;251;48.704;9.210;2024-03-23T13:31:43;11.40;5.10
530;DHT22;251;48.704;9.210;2024-03-23T13:34:09;11.10;3.70
530;DHT22;251;48.704;9.210;2024-03-23T13:36:35;10.80;2.40
530;DHT22;251;48.704;9.210;2024-03-23T13:39:01;10.50;1.00
530;DHT22;251;48.704;9.210;2024-03-23T13:41:30;10.30;2.20
530;DHT22;251;48.704;9.210;2024-03-23T13:43:56;10.70;1.40
530;DHT22;251;48.704;9.210;2024-03-23T13:46:22;11.60;1.10
530;DHT22;251;48.704;9.210;2024-03-23T13:48:48;12.50;1.00
530;DHT22;251;48.704;9.210;2024-03-23T13:51:14;13.10;1.00
530;DHT22;251;48.704;9.210;2024-03-23T13:53:40;13.60;1.00
530;DHT22;251;48.704;9.210;2024-03-23T13:56:06;13.70;1.00
530;DHT22;251;48.704;9.210;2024-03-23T13:58:35;13.70;1.00
530;DHT22;251;48.704;9.210;2024-03-23T14:01:01;14.00;1.00
530;DHT22;251;48.704;9.210;2024-03-23T14:03:26;14.40;1.00
530;DHT22;251;48.704;9.210;2024-03-23T14:05:53;14.70;1.00
530;DHT22;251;48.704;9.210;2024-03-23T14:08:19;14.90;1.00
530;DHT22;251;48.704;9.210;2024-03-23T14:10:45;14.90;1.00
530;DHT22;251;48.704;9.210;2024-03-23T14:13:11;14.10;1.00
530;DHT22;251;48.704;9.210;2024-03-23T14:15:40;13.50;1.00
530;DHT22;251;48.704;9.210;2024-03-23T14:18:06;12.90;1.00
530;DHT22;251;48.704;9.210;2024-03-23T14:20:32;12.00;1.60
530;DHT22;251;48.704;9.210;2024-03-23T14:22:58;11.40;4.60
530;DHT22;251;48.704;9.210;2024-03-23T14:25:24;11.10;5.20
530;DHT22;251;48.704;9.210;2024-03-23T14:27:50;11.90;4.40
530;DHT22;251;48.704;9.210;2024-03-23T14:30:16;12.90;1.60
530;DHT22;251;48.704;9.210;2024-03-23T14:32:44;14.20;1.00
530;DHT22;251;48.704;9.210;2024-03-23T14:35:10;15.30;1.00
530;DHT22;251;48.704;9.210;2024-03-23T14:37:36;15.60;1.00
530;DHT22;251;48.704;9.210;2024-03-23T14:40:04;14.90;1.00
530;DHT22;251;48.704;9.210;2024-03-23T14:42:30;15.20;1.00
530;DHT22;251;48.704;9.210;2024-03-23T14:44:56;15.70;1.00
530;DHT22;251;48.704;9.210;2024-03-23T14:47:22;16.40;1.00
530;DHT22;251;48.704;9.210;2024-03-23T14:49:51;15.90;1.00
530;DHT22;251;48.704;9.210;2024-03-23T14:52:18;16.00;1.00
530;DHT22;251;48.704;9.210;2024-03-23T14:54:44;15.30;1.00
530;DHT22;251;48.704;9.210;2024-03-23T14:57:12;14.50;1.00
530;DHT22;251;48.704;9.210;2024-03-23T14:59:38;13.90;1.00
530;DHT22;251;48.704;9.210;2024-03-23T15:02:04;13.40;1.00
530;DHT22;251;48.704;9.210;2024-03-23T15:04:30;12.70;1.00
530;DHT22;251;48.704;9.210;2024-03-23T15:06:59;12.10;1.00
530;DHT22;251;48.704;9.210;2024-03-23T15:09:25;11.30;2.40
530;DHT22;251;48.704;9.210;2024-03-23T15:11:51;10.60;6.40
530;DHT22;251;48.704;9.210;2024-03-23T15:14:17;10.00;9.40
530;DHT22;251;48.704;9.210;2024-03-23T15:16:43;9.70;13.90
530;DHT22;251;48.704;9.210;2024-03-23T15:19:09;10.20;12.70
530;DHT22;251;48.704;9.210;2024-03-23T15:21:35;10.80;11.70
530;DHT22;251;48.704;9.210;2024-03-23T15:24:05;11.70;10.90
530;DHT22;251;48.704;9.210;2024-03-23T15:26:31;12.60;7.40
530;DHT22;251;48.704;9.210;2024-03-23T15:28:57;13.70;6.80
530;DHT22;251;48.704;9.210;2024-03-23T15:31:38;14.70;5.30
530;DHT22;251;48.704;9.210;2024-03-23T15:34:04;15.00;1.60
530;DHT22;251;48.704;9.210;2024-03-23T15:36:30;15.30;1.00
530;DHT22;251;48.704;9.210;2024-03-23T15:38:56;15.60;1.00
530;DHT22;251;48.704;9.210;2024-03-23T15:41:25;15.70;1.00
530;DHT22;251;48.704;9.210;2024-03-23T15:43:51;15.00;1.00
530;DHT22;251;48.704;9.210;2024-03-23T15:46:17;14.80;1.60
530;DHT22;251;48.704;9.210;2024-03-23T15:48:43;13.90;1.00
530;DHT22;251;48.704;9.210;2024-03-23T15:51:09;13.20;2.10
530;DHT22;251;48.704;9.210;2024-03-23T15:53:35;12.50;3.20
530;DHT22;251;48.704;9.210;2024-03-23T15:56:02;11.80;4.40
530;DHT22;251;48.704;9.210;2024-03-23T15:58:32;11.00;5.50
530;DHT22;251;48.704;9.210;2024-03-23T16:00:59;10.30;6.70
530;DHT22;251;48.704;9.210;2024-03-23T16:03:26;10.00;9.10
530;DHT22;251;48.704;9.210;2024-03-23T16:05:52;9.70;10.80
530;DHT22;251;48.704;9.210;2024-03-23T16:08:18;9.20;9.00
530;DHT22;251;48.704;9.210;2024-03-23T16:10:44;9.00;9.70
530;DHT22;251;48.704;9.210;2024-03-23T16:13:10;9.00;9.50
530;DHT22;251;48.704;9.210;2024-03-23T16:15:39;9.70;8.30
530;DHT22;251;48.704;9.210;2024-03-23T16:18:06;10.20;7.50
530;DHT22;251;48.704;9.210;2024-03-23T16:20:32;10.10;6.40
530;DHT22;251;48.704;9.210;2024-03-23T16:22:58;9.90;8.10
530;DHT22;251;48.704;9.210;2024-03-23T16:25:24;9.50;7.90
530;DHT22;251;48.704;9.210;2024-03-23T16:27:50;9.10;7.90
530;DHT22;251;48.704;9.210;2024-03-23T16:30:16;9.10;8.60
530;DHT22;251;48.704;9.210;2024-03-23T16:32:45;8.90;8.60
530;DHT22;251;48.704;9.210;2024-03-23T16:35:12;8.70;8.80
530;DHT22;251;48.704;9.210;2024-03-23T16:37:38;8.70;9.30
530;DHT22;251;48.704;9.210;2024-03-23T16:40:06;8.70;9.70
530;DHT22;251;48.704;9.210;2024-03-23T16:42:32;8.60;9.90
530;DHT22;251;48.704;9.210;2024-03-23T16:44:58;8.40;9.10
530;DHT22;251;48.704;9.210;2024-03-23T16:47:24;8.30;9.50
530;DHT22;251;48.704;9.210;2024-03-23T16:49:52;8.20;10.50
530;DHT22;251;48.704;9.210;2024-03-23T16:52:18;8.20;10.40
530;DHT22;251;48.704;9.210;2024-03-23T16:54:44;8.20;11.10
530;DHT22;251;48.704;9.210;2024-03-23T16:57:10;8.20;12.10
530;DHT22;251;48.704;9.210;2024-03-23T16:59:36;8.20;12.80
530;DHT22;251;48.704;9.210;2024-03-23T17:02:03;8.10;12.10
530;DHT22;251;48.704;9.210;2024-03-23T17:04:29;7.90;12.40
530;DHT22;251;48.704;9.210;2024-03-23T17:06:57;7.70;13.40
530;DHT22;251;48.704;9.210;2024-03-23T17:09:23;7.60;14.40
530;DHT22;251;48.704;9.210;2024-03-23T17:11:50;7.50;14.70
530;DHT22;251;48.704;9.210;2024-03-23T17:14:16;7.40;15.20
530;DHT22;251;48.704;9.210;2024-03-23T17:16:42;7.30;15.30
530;DHT22;251;48.704;9.210;2024-03-23T17:19:08;7.30;16.30
530;DHT22;251;48.704;9.210;2024-03-23T17:21:34;7.20;16.60
530;DHT22;251;48.704;9.210;2024-03-23T17:24:03;7.20;15.30
530;DHT22;251;48.704;9.210;2024-03-23T17:26:29;7.10;16.10
530;DHT22;251;48.704;9.210;2024-03-23T17:28:55;7.00;15.80
530;DHT22;251;48.704;9.210;2024-03-23T17:31:21;7.00;16.50
530;DHT22;251;48.704;9.210;2024-03-23T17:33:50;6.90;16.70
530;DHT22;251;48.704;9.210;2024-03-23T17:36:16;6.90;17.30
530;DHT22;251;48.704;9.210;2024-03-23T17:38:42;6.90;16.50
530;DHT22;251;48.704;9.210;2024-03-23T17:41:10;6.90;17.00